Main page
METAR-TAF:

METAR-TAF

Airports :

RNAS Yeovilton (HMS Heron)

Yeovilton, England

latitude: 51-00N, longitude: 002-38W, elevation: 23 m

Current weather observation

The report was made 1 hour and 4 minutes ago, at 06:50 UTC
Wind 6 kt from the South/Southwest
Temperature 14°C
Humidity 94%
Pressure 1003 hPa
Visibility 10 km or more
light rain

METAR: EGDY 180650Z AUTO 20006KT 9999 -RA FEW042/// BKN050/// 14/13 Q1003

Time: 08:54 (07:54 UTC)


TAF: missing

Weather observations and forecasts of more than 4000 airports (METAR and TAF reports).

The available stations are represented by yellow and red dots on the map.

Hover mouse over dot to see the name of the station.

Then click to see weather observations and forecasts.

To change the map : click on the green buttons with a black cross to zoom in, on the green button with a dash to zoom out, or on the green arrows for adjacent maps.


METAR-TAF: